sensor_id;sensor_type;location;lat;lon;timestamp;temperature;humidity
20973;DHT22;10645;52.370;13.314;2022-11-20T00:01:13;-0.10;99.90
20973;DHT22;10645;52.370;13.314;2022-11-20T00:03:40;-0.20;99.90
20973;DHT22;10645;52.370;13.314;2022-11-20T00:06:08;-0.20;99.90
20973;DHT22;10645;52.370;13.314;2022-11-20T00:08:35;-0.20;99.90
20973;DHT22;10645;52.370;13.314;2022-11-20T00:11:15;-0.20;99.90
20973;DHT22;10645;52.370;13.314;2022-11-20T00:13:42;-0.30;99.90
20973;DHT22;10645;52.370;13.314;2022-11-20T00:16:11;-0.30;99.90
20973;DHT22;10645;52.370;13.314;2022-11-20T00:18:37;-0.30;99.90
20973;DHT22;10645;52.370;13.314;2022-11-20T00:21:10;-0.30;99.90
20973;DHT22;10645;52.370;13.314;2022-11-20T00:23:36;-0.30;99.90
20973;DHT22;10645;52.370;13.314;2022-11-20T00:26:07;-0.40;99.90
20973;DHT22;10645;52.370;13.314;2022-11-20T00:28:33;-0.40;99.90
20973;DHT22;10645;52.370;13.314;2022-11-20T00:31:11;-0.40;99.90
20973;DHT22;10645;52.370;13.314;2022-11-20T00:33:38;-0.40;99.90
20973;DHT22;10645;52.370;13.314;2022-11-20T00:36:06;-0.40;99.90
20973;DHT22;10645;52.370;13.314;2022-11-20T00:38:33;-0.40;99.90
20973;DHT22;10645;52.370;13.314;2022-11-20T00:41:01;-0.50;99.90
20973;DHT22;10645;52.370;13.314;2022-11-20T00:43:28;-0.50;99.90
20973;DHT22;10645;52.370;13.314;2022-11-20T00:46:02;-0.50;99.90
20973;DHT22;10645;52.370;13.314;2022-11-20T00:48:29;-0.60;99.90
20973;DHT22;10645;52.370;13.314;2022-11-20T00:50:55;-0.60;99.90
20973;DHT22;10645;52.370;13.314;2022-11-20T00:53:21;-0.60;99.90
20973;DHT22;10645;52.370;13.314;2022-11-20T00:55:58;-0.70;99.90
20973;DHT22;10645;52.370;13.314;2022-11-20T00:58:29;-0.70;99.90
20973;DHT22;10645;52.370;13.314;2022-11-20T01:01:11;-0.70;99.90
20973;DHT22;10645;52.370;13.314;2022-11-20T01:03:43;-0.70;99.90
20973;DHT22;10645;52.370;13.314;2022-11-20T01:06:11;-0.80;99.90
20973;DHT22;10645;52.370;13.314;2022-11-20T01:08:37;-0.80;99.90
20973;DHT22;10645;52.370;13.314;2022-11-20T01:11:06;-0.80;99.90
20973;DHT22;10645;52.370;13.314;2022-11-20T01:13:33;-0.80;99.90
20973;DHT22;10645;52.370;13.314;2022-11-20T01:16:20;-0.90;99.90
20973;DHT22;10645;52.370;13.314;2022-11-20T01:18:49;-0.90;99.90
20973;DHT22;10645;52.370;13.314;2022-11-20T01:21:18;-0.90;99.90
20973;DHT22;10645;52.370;13.314;2022-11-20T01:23:45;-1.00;99.90
20973;DHT22;10645;52.370;13.314;2022-11-20T01:26:13;-1.00;99.90
20973;DHT22;10645;52.370;13.314;2022-11-20T01:28:40;-1.10;99.90
20973;DHT22;10645;52.370;13.314;2022-11-20T01:31:15;-1.10;99.90
20973;DHT22;10645;52.370;13.314;2022-11-20T01:33:42;-1.10;99.90
20973;DHT22;10645;52.370;13.314;2022-11-20T01:36:09;-1.20;99.90
20973;DHT22;10645;52.370;13.314;2022-11-20T01:38:36;-1.30;99.90
20973;DHT22;10645;52.370;13.314;2022-11-20T01:41:02;-1.30;99.90
20973;DHT22;10645;52.370;13.314;2022-11-20T01:43:28;-1.30;99.90
20973;DHT22;10645;52.370;13.314;2022-11-20T01:46:02;-1.40;99.90
20973;DHT22;10645;52.370;13.314;2022-11-20T01:48:39;-1.40;99.90
20973;DHT22;10645;52.370;13.314;2022-11-20T01:51:15;-1.40;99.90
20973;DHT22;10645;52.370;13.314;2022-11-20T01:53:43;-1.50;99.90
20973;DHT22;10645;52.370;13.314;2022-11-20T01:56:11;-1.50;99.90
20973;DHT22;10645;52.370;13.314;2022-11-20T01:58:43;-1.50;99.90
20973;DHT22;10645;52.370;13.314;2022-11-20T02:01:11;-1.60;99.90
20973;DHT22;10645;52.370;13.314;2022-11-20T02:03:38;-1.60;99.90
20973;DHT22;10645;52.370;13.314;2022-11-20T02:06:16;-1.60;99.90
20973;DHT22;10645;52.370;13.314;2022-11-20T02:08:43;-1.70;99.90
20973;DHT22;10645;52.370;13.314;2022-11-20T02:11:09;-1.70;99.90
20973;DHT22;10645;52.370;13.314;2022-11-20T02:13:35;-1.80;99.90
20973;DHT22;10645;52.370;13.314;2022-11-20T02:18:43;-1.80;99.90
20973;DHT22;10645;52.370;13.314;2022-11-20T02:21:21;-1.70;99.90
20973;DHT22;10645;52.370;13.314;2022-11-20T02:26:46;-1.70;99.90
20973;DHT22;10645;52.370;13.314;2022-11-20T02:29:16;-1.80;99.90
20973;DHT22;10645;52.370;13.314;2022-11-20T02:31:43;-1.80;99.90
20973;DHT22;10645;52.370;13.314;2022-11-20T02:34:09;-1.80;99.90
20973;DHT22;10645;52.370;13.314;2022-11-20T02:36:36;-1.80;99.90
20973;DHT22;10645;52.370;13.314;2022-11-20T02:39:05;-1.90;99.90
20973;DHT22;10645;52.370;13.314;2022-11-20T02:41:33;-1.90;99.90
20973;DHT22;10645;52.370;13.314;2022-11-20T02:44:00;-1.90;99.90
20973;DHT22;10645;52.370;13.314;2022-11-20T02:50:14;-1.90;99.90
20973;DHT22;10645;52.370;13.314;2022-11-20T02:52:41;-2.00;99.90
20973;DHT22;10645;52.370;13.314;2022-11-20T02:55:07;-2.00;99.90
20973;DHT22;10645;52.370;13.314;2022-11-20T02:57:33;-1.90;99.90
20973;DHT22;10645;52.370;13.314;2022-11-20T02:59:59;-1.90;99.90
20973;DHT22;10645;52.370;13.314;2022-11-20T03:02:27;-1.80;99.90
20973;DHT22;10645;52.370;13.314;2022-11-20T03:04:55;-1.70;99.90
20973;DHT22;10645;52.370;13.314;2022-11-20T03:07:21;-1.70;99.90
20973;DHT22;10645;52.370;13.314;2022-11-20T03:09:47;-1.60;99.90
20973;DHT22;10645;52.370;13.314;2022-11-20T03:12:13;-1.60;99.90
20973;DHT22;10645;52.370;13.314;2022-11-20T03:14:40;-1.60;99.90
20973;DHT22;10645;52.370;13.314;2022-11-20T03:17:06;-1.60;99.90
20973;DHT22;10645;52.370;13.314;2022-11-20T03:19:32;-1.60;99.90
20973;DHT22;10645;52.370;13.314;2022-11-20T03:21:58;-1.60;99.90
20973;DHT22;10645;52.370;13.314;2022-11-20T03:24:24;-1.60;99.90
20973;DHT22;10645;52.370;13.314;2022-11-20T03:26:50;-1.60;99.90
20973;DHT22;10645;52.370;13.314;2022-11-20T03:29:16;-1.60;99.90
20973;DHT22;10645;52.370;13.314;2022-11-20T03:31:42;-1.70;99.90
20973;DHT22;10645;52.370;13.314;2022-11-20T03:34:10;-1.70;99.90
20973;DHT22;10645;52.370;13.314;2022-11-20T03:36:41;-1.80;99.90
20973;DHT22;10645;52.370;13.314;2022-11-20T03:39:07;-1.80;99.90
20973;DHT22;10645;52.370;13.314;2022-11-20T03:41:39;-1.80;99.90
20973;DHT22;10645;52.370;13.314;2022-11-20T03:44:08;-1.80;99.90
20973;DHT22;10645;52.370;13.314;2022-11-20T03:46:34;-1.80;99.90
20973;DHT22;10645;52.370;13.314;2022-11-20T03:49:01;-1.80;99.90
20973;DHT22;10645;52.370;13.314;2022-11-20T03:51:29;-1.80;99.90
20973;DHT22;10645;52.370;13.314;2022-11-20T03:53:58;-1.80;99.90
20973;DHT22;10645;52.370;13.314;2022-11-20T03:56:27;-1.80;99.90
20973;DHT22;10645;52.370;13.314;2022-11-20T03:58:54;-1.70;99.90
20973;DHT22;10645;52.370;13.314;2022-11-20T04:01:32;-1.70;99.90
20973;DHT22;10645;52.370;13.314;2022-11-20T04:03:58;-1.60;99.90
20973;DHT22;10645;52.370;13.314;2022-11-20T04:06:27;-1.60;99.90
20973;DHT22;10645;52.370;13.314;2022-11-20T04:08:54;-1.50;99.90
20973;DHT22;10645;52.370;13.314;2022-11-20T04:11:23;-1.50;99.90
20973;DHT22;10645;52.370;13.314;2022-11-20T04:13:52;-1.50;99.90
20973;DHT22;10645;52.370;13.314;2022-11-20T04:16:19;-1.40;99.90
20973;DHT22;10645;52.370;13.314;2022-11-20T04:18:45;-1.40;99.90
20973;DHT22;10645;52.370;13.314;2022-11-20T04:21:12;-1.40;99.90
20973;DHT22;10645;52.370;13.314;2022-11-20T04:23:38;-1.30;99.90
20973;DHT22;10645;52.370;13.314;2022-11-20T04:26:07;-1.20;99.90
20973;DHT22;10645;52.370;13.314;2022-11-20T04:28:33;-1.20;99.90
20973;DHT22;10645;52.370;13.314;2022-11-20T04:31:08;-1.10;99.90
20973;DHT22;10645;52.370;13.314;2022-11-20T04:33:34;-1.10;99.90
20973;DHT22;10645;52.370;13.314;2022-11-20T04:36:04;-1.00;99.90
20973;DHT22;10645;52.370;13.314;2022-11-20T04:38:31;-1.00;99.90
20973;DHT22;10645;52.370;13.314;2022-11-20T04:41:02;-1.00;99.90
20973;DHT22;10645;52.370;13.314;2022-11-20T04:43:28;-0.90;99.90
20973;DHT22;10645;52.370;13.314;2022-11-20T04:45:56;-0.90;99.90
20973;DHT22;10645;52.370;13.314;2022-11-20T04:48:23;-0.90;99.90
20973;DHT22;10645;52.370;13.314;2022-11-20T04:50:50;-0.80;99.90
20973;DHT22;10645;52.370;13.314;2022-11-20T04:53:17;-0.70;99.90
20973;DHT22;10645;52.370;13.314;2022-11-20T04:55:43;-0.70;99.90
20973;DHT22;10645;52.370;13.314;2022-11-20T04:58:10;-0.70;99.90
20973;DHT22;10645;52.370;13.314;2022-11-20T05:00:36;-0.60;99.90
20973;DHT22;10645;52.370;13.314;2022-11-20T05:03:03;-0.60;99.90
20973;DHT22;10645;52.370;13.314;2022-11-20T05:05:29;-0.60;99.90
20973;DHT22;10645;52.370;13.314;2022-11-20T05:07:58;-0.60;99.90
20973;DHT22;10645;52.370;13.314;2022-11-20T05:10:25;-0.60;99.90
20973;DHT22;10645;52.370;13.314;2022-11-20T05:12:52;-0.60;99.90
20973;DHT22;10645;52.370;13.314;2022-11-20T05:15:18;-0.50;99.90
20973;DHT22;10645;52.370;13.314;2022-11-20T05:17:51;-0.50;99.90
20973;DHT22;10645;52.370;13.314;2022-11-20T05:20:18;-0.50;99.90
20973;DHT22;10645;52.370;13.314;2022-11-20T05:22:45;-0.50;99.90
20973;DHT22;10645;52.370;13.314;2022-11-20T05:25:11;-0.40;99.90
20973;DHT22;10645;52.370;13.314;2022-11-20T05:27:37;-0.50;99.90
20973;DHT22;10645;52.370;13.314;2022-11-20T05:30:04;-0.50;99.90
20973;DHT22;10645;52.370;13.314;2022-11-20T05:32:30;-0.40;99.90
20973;DHT22;10645;52.370;13.314;2022-11-20T05:34:56;-0.40;99.90
20973;DHT22;10645;52.370;13.314;2022-11-20T05:37:22;-0.40;99.90
20973;DHT22;10645;52.370;13.314;2022-11-20T05:39:48;-0.40;99.90
20973;DHT22;10645;52.370;13.314;2022-11-20T05:42:14;-0.40;99.90
20973;DHT22;10645;52.370;13.314;2022-11-20T05:45:00;-0.40;99.90
20973;DHT22;10645;52.370;13.314;2022-11-20T05:47:28;-0.40;99.90
20973;DHT22;10645;52.370;13.314;2022-11-20T05:49:54;-0.40;99.90
20973;DHT22;10645;52.370;13.314;2022-11-20T05:52:20;-0.40;99.90
20973;DHT22;10645;52.370;13.314;2022-11-20T05:54:46;-0.40;99.90
20973;DHT22;10645;52.370;13.314;2022-11-20T05:57:12;-0.40;99.90
20973;DHT22;10645;52.370;13.314;2022-11-20T05:59:38;-0.40;99.90
20973;DHT22;10645;52.370;13.314;2022-11-20T06:02:05;-0.40;99.90
20973;DHT22;10645;52.370;13.314;2022-11-20T06:04:31;-0.40;99.90
20973;DHT22;10645;52.370;13.314;2022-11-20T06:06:57;-0.40;99.90
20973;DHT22;10645;52.370;13.314;2022-11-20T06:09:23;-0.40;99.90
20973;DHT22;10645;52.370;13.314;2022-11-20T06:11:49;-0.40;99.90
20973;DHT22;10645;52.370;13.314;2022-11-20T06:14:15;-0.40;99.90
20973;DHT22;10645;52.370;13.314;2022-11-20T06:16:41;-0.40;99.90
20973;DHT22;10645;52.370;13.314;2022-11-20T06:19:07;-0.40;99.90
20973;DHT22;10645;52.370;13.314;2022-11-20T06:21:33;-0.40;99.90
20973;DHT22;10645;52.370;13.314;2022-11-20T06:23:59;-0.40;99.90
20973;DHT22;10645;52.370;13.314;2022-11-20T06:26:27;-0.40;99.90
20973;DHT22;10645;52.370;13.314;2022-11-20T06:28:54;-0.40;99.90
20973;DHT22;10645;52.370;13.314;2022-11-20T06:31:23;-0.40;99.90
20973;DHT22;10645;52.370;13.314;2022-11-20T06:33:50;-0.40;99.90
20973;DHT22;10645;52.370;13.314;2022-11-20T06:36:19;-0.40;99.90
20973;DHT22;10645;52.370;13.314;2022-11-20T06:38:46;-0.40;99.90
20973;DHT22;10645;52.370;13.314;2022-11-20T06:41:14;-0.40;99.90
20973;DHT22;10645;52.370;13.314;2022-11-20T06:43:41;-0.40;99.90
20973;DHT22;10645;52.370;13.314;2022-11-20T06:46:09;-0.50;99.90
20973;DHT22;10645;52.370;13.314;2022-11-20T06:48:35;-0.50;99.90
20973;DHT22;10645;52.370;13.314;2022-11-20T06:51:06;-0.40;99.90
20973;DHT22;10645;52.370;13.314;2022-11-20T06:53:33;-0.40;99.90
20973;DHT22;10645;52.370;13.314;2022-11-20T06:55:59;-0.40;99.90
20973;DHT22;10645;52.370;13.314;2022-11-20T06:58:27;-0.40;99.90
20973;DHT22;10645;52.370;13.314;2022-11-20T07:00:57;-0.40;99.90
20973;DHT22;10645;52.370;13.314;2022-11-20T07:03:23;-0.40;99.90
20973;DHT22;10645;52.370;13.314;2022-11-20T07:05:49;-0.40;99.90
20973;DHT22;10645;52.370;13.314;2022-11-20T07:08:15;-0.40;99.90
20973;DHT22;10645;52.370;13.314;2022-11-20T07:10:41;-0.40;99.90
20973;DHT22;10645;52.370;13.314;2022-11-20T07:13:08;-0.40;99.90
20973;DHT22;10645;52.370;13.314;2022-11-20T07:15:34;-0.50;99.90
20973;DHT22;10645;52.370;13.314;2022-11-20T07:18:00;-0.40;99.90
20973;DHT22;10645;52.370;13.314;2022-11-20T07:20:26;-0.40;99.90
20973;DHT22;10645;52.370;13.314;2022-11-20T07:22:56;-0.40;99.90
20973;DHT22;10645;52.370;13.314;2022-11-20T07:25:24;-0.40;99.90
20973;DHT22;10645;52.370;13.314;2022-11-20T07:27:51;-0.40;99.90
20973;DHT22;10645;52.370;13.314;2022-11-20T07:30:17;-0.40;99.90
20973;DHT22;10645;52.370;13.314;2022-11-20T07:32:46;-0.40;99.90
20973;DHT22;10645;52.370;13.314;2022-11-20T07:35:13;-0.40;99.90
20973;DHT22;10645;52.370;13.314;2022-11-20T07:37:39;-0.40;99.90
20973;DHT22;10645;52.370;13.314;2022-11-20T07:40:05;-0.30;99.90
20973;DHT22;10645;52.370;13.314;2022-11-20T07:42:31;-0.30;99.90
20973;DHT22;10645;52.370;13.314;2022-11-20T07:44:57;-0.30;99.90
20973;DHT22;10645;52.370;13.314;2022-11-20T07:47:23;-0.30;99.90
20973;DHT22;10645;52.370;13.314;2022-11-20T07:49:50;-0.30;99.90
20973;DHT22;10645;52.370;13.314;2022-11-20T07:52:16;-0.20;99.90
20973;DHT22;10645;52.370;13.314;2022-11-20T07:54:42;-0.20;99.90
20973;DHT22;10645;52.370;13.314;2022-11-20T07:57:08;-0.20;99.90
20973;DHT22;10645;52.370;13.314;2022-11-20T07:59:34;-0.10;99.90
20973;DHT22;10645;52.370;13.314;2022-11-20T08:02:01;-0.10;99.90
20973;DHT22;10645;52.370;13.314;2022-11-20T08:04:27;-0.10;99.90
20973;DHT22;10645;52.370;13.314;2022-11-20T08:06:53;0.00;99.90
20973;DHT22;10645;52.370;13.314;2022-11-20T08:09:19;0.00;99.90
20973;DHT22;10645;52.370;13.314;2022-11-20T08:11:45;0.10;99.90
20973;DHT22;10645;52.370;13.314;2022-11-20T08:14:30;0.10;99.90
20973;DHT22;10645;52.370;13.314;2022-11-20T08:16:56;0.10;99.90
20973;DHT22;10645;52.370;13.314;2022-11-20T08:19:22;0.20;99.90
20973;DHT22;10645;52.370;13.314;2022-11-20T08:21:48;0.20;99.90
20973;DHT22;10645;52.370;13.314;2022-11-20T08:24:14;0.20;99.90
20973;DHT22;10645;52.370;13.314;2022-11-20T08:26:40;0.20;99.90
20973;DHT22;10645;52.370;13.314;2022-11-20T08:29:06;0.20;99.90
20973;DHT22;10645;52.370;13.314;2022-11-20T08:31:33;0.30;99.90
20973;DHT22;10645;52.370;13.314;2022-11-20T08:33:59;0.30;99.90
20973;DHT22;10645;52.370;13.314;2022-11-20T08:36:25;0.30;99.90
20973;DHT22;10645;52.370;13.314;2022-11-20T08:38:53;0.30;99.90
20973;DHT22;10645;52.370;13.314;2022-11-20T08:41:20;0.30;99.90
20973;DHT22;10645;52.370;13.314;2022-11-20T08:43:57;0.30;99.90
20973;DHT22;10645;52.370;13.314;2022-11-20T08:46:31;0.30;99.90
20973;DHT22;10645;52.370;13.314;2022-11-20T08:48:59;0.30;99.90
20973;DHT22;10645;52.370;13.314;2022-11-20T08:51:25;0.30;99.90
20973;DHT22;10645;52.370;13.314;2022-11-20T08:53:51;0.30;99.90
20973;DHT22;10645;52.370;13.314;2022-11-20T08:56:17;0.30;99.90
20973;DHT22;10645;52.370;13.314;2022-11-20T08:58:43;0.30;99.90
20973;DHT22;10645;52.370;13.314;2022-11-20T09:01:10;0.30;99.90
20973;DHT22;10645;52.370;13.314;2022-11-20T09:03:37;0.20;99.90
20973;DHT22;10645;52.370;13.314;2022-11-20T09:06:05;0.20;99.90
20973;DHT22;10645;52.370;13.314;2022-11-20T09:08:32;0.30;99.90
20973;DHT22;10645;52.370;13.314;2022-11-20T09:10:59;0.30;99.90
20973;DHT22;10645;52.370;13.314;2022-11-20T09:13:27;0.40;99.90
20973;DHT22;10645;52.370;13.314;2022-11-20T09:15:58;0.40;99.90
20973;DHT22;10645;52.370;13.314;2022-11-20T09:18:26;0.40;99.90
20973;DHT22;10645;52.370;13.314;2022-11-20T09:20:56;0.40;99.90
20973;DHT22;10645;52.370;13.314;2022-11-20T09:23:22;0.50;99.90
20973;DHT22;10645;52.370;13.314;2022-11-20T09:25:48;0.50;99.90
20973;DHT22;10645;52.370;13.314;2022-11-20T09:28:14;0.50;99.90
20973;DHT22;10645;52.370;13.314;2022-11-20T09:30:40;0.60;99.90
20973;DHT22;10645;52.370;13.314;2022-11-20T09:33:06;0.60;99.90
20973;DHT22;10645;52.370;13.314;2022-11-20T09:35:33;0.70;99.90
20973;DHT22;10645;52.370;13.314;2022-11-20T09:38:04;0.70;99.90
20973;DHT22;10645;52.370;13.314;2022-11-20T09:40:31;0.70;99.90
20973;DHT22;10645;52.370;13.314;2022-11-20T09:43:12;0.70;99.90
20973;DHT22;10645;52.370;13.314;2022-11-20T09:46:01;0.60;99.90
20973;DHT22;10645;52.370;13.314;2022-11-20T09:49:06;0.70;99.90
20973;DHT22;10645;52.370;13.314;2022-11-20T09:54:17;0.70;99.90
20973;DHT22;10645;52.370;13.314;2022-11-20T09:56:48;0.80;99.90
20973;DHT22;10645;52.370;13.314;2022-11-20T09:59:45;0.80;99.90
20973;DHT22;10645;52.370;13.314;2022-11-20T10:05:17;0.80;99.90
20973;DHT22;10645;52.370;13.314;2022-11-20T10:07:55;0.80;99.90
20973;DHT22;10645;52.370;13.314;2022-11-20T10:10:43;0.80;99.90
20973;DHT22;10645;52.370;13.314;2022-11-20T10:13:24;0.90;99.90
20973;DHT22;10645;52.370;13.314;2022-11-20T10:16:13;0.80;99.90
20973;DHT22;10645;52.370;13.314;2022-11-20T10:22:03;0.90;99.90
20973;DHT22;10645;52.370;13.314;2022-11-20T10:32:39;0.90;99.90
20973;DHT22;10645;52.370;13.314;2022-11-20T10:38:48;1.00;99.90
20973;DHT22;10645;52.370;13.314;2022-11-20T10:41:38;1.10;99.90
20973;DHT22;10645;52.370;13.314;2022-11-20T10:44:20;1.10;99.90
20973;DHT22;10645;52.370;13.314;2022-11-20T10:47:05;1.10;99.90
20973;DHT22;10645;52.370;13.314;2022-11-20T10:49:36;1.10;99.90
20973;DHT22;10645;52.370;13.314;2022-11-20T10:57:48;1.10;99.90
20973;DHT22;10645;52.370;13.314;2022-11-20T11:00:17;1.10;99.90
20973;DHT22;10645;52.370;13.314;2022-11-20T11:02:51;1.10;99.90
20973;DHT22;10645;52.370;13.314;2022-11-20T11:05:37;1.10;99.90
20973;DHT22;10645;52.370;13.314;2022-11-20T11:08:12;1.10;99.90
20973;DHT22;10645;52.370;13.314;2022-11-20T11:10:51;1.20;99.90
20973;DHT22;10645;52.370;13.314;2022-11-20T11:13:25;1.20;99.90
20973;DHT22;10645;52.370;13.314;2022-11-20T11:15:52;1.20;99.90
20973;DHT22;10645;52.370;13.314;2022-11-20T11:18:33;1.30;99.90
20973;DHT22;10645;52.370;13.314;2022-11-20T11:21:04;1.40;99.90
20973;DHT22;10645;52.370;13.314;2022-11-20T11:23:39;1.40;99.90
20973;DHT22;10645;52.370;13.314;2022-11-20T11:26:17;1.40;99.90
20973;DHT22;10645;52.370;13.314;2022-11-20T11:28:56;1.50;99.90
20973;DHT22;10645;52.370;13.314;2022-11-20T11:31:28;1.60;99.90
20973;DHT22;10645;52.370;13.314;2022-11-20T11:36:32;1.80;99.90
20973;DHT22;10645;52.370;13.314;2022-11-20T11:38:59;2.00;99.90
20973;DHT22;10645;52.370;13.314;2022-11-20T11:41:32;2.10;99.90
20973;DHT22;10645;52.370;13.314;2022-11-20T11:44:19;2.20;99.90
20973;DHT22;10645;52.370;13.314;2022-11-20T11:47:06;2.30;99.90
20973;DHT22;10645;52.370;13.314;2022-11-20T11:49:35;2.40;99.90
20973;DHT22;10645;52.370;13.314;2022-11-20T11:54:38;2.50;99.90
20973;DHT22;10645;52.370;13.314;2022-11-20T12:00:09;2.60;99.90
20973;DHT22;10645;52.370;13.314;2022-11-20T12:03:03;2.80;99.90
20973;DHT22;10645;52.370;13.314;2022-11-20T12:05:32;2.80;99.90
20973;DHT22;10645;52.370;13.314;2022-11-20T12:08:27;2.70;99.90
20973;DHT22;10645;52.370;13.314;2022-11-20T12:13:55;2.70;99.90
20973;DHT22;10645;52.370;13.314;2022-11-20T12:16:24;2.60;99.90
20973;DHT22;10645;52.370;13.314;2022-11-20T12:18:51;2.60;99.90
20973;DHT22;10645;52.370;13.314;2022-11-20T12:21:19;2.60;99.90
20973;DHT22;10645;52.370;13.314;2022-11-20T12:29:56;2.50;99.90
20973;DHT22;10645;52.370;13.314;2022-11-20T12:32:49;2.50;99.90
20973;DHT22;10645;52.370;13.314;2022-11-20T12:35:49;2.30;99.90
20973;DHT22;10645;52.370;13.314;2022-11-20T12:41:57;2.30;99.90
20973;DHT22;10645;52.370;13.314;2022-11-20T12:50:50;2.10;99.90
20973;DHT22;10645;52.370;13.314;2022-11-20T12:55:49;1.90;99.90
20973;DHT22;10645;52.370;13.314;2022-11-20T12:58:39;2.00;99.90
20973;DHT22;10645;52.370;13.314;2022-11-20T13:04:29;1.90;99.90
20973;DHT22;10645;52.370;13.314;2022-11-20T13:07:02;1.90;99.90
20973;DHT22;10645;52.370;13.314;2022-11-20T13:09:30;1.90;99.90
20973;DHT22;10645;52.370;13.314;2022-11-20T13:17:43;1.80;99.90
20973;DHT22;10645;52.370;13.314;2022-11-20T13:20:16;1.80;99.90
20973;DHT22;10645;52.370;13.314;2022-11-20T13:22:48;1.80;99.90
20973;DHT22;10645;52.370;13.314;2022-11-20T13:28:03;1.70;99.90
20973;DHT22;10645;52.370;13.314;2022-11-20T13:30:30;1.70;99.90
20973;DHT22;10645;52.370;13.314;2022-11-20T13:33:08;1.70;99.90
20973;DHT22;10645;52.370;13.314;2022-11-20T13:35:37;1.60;99.90
20973;DHT22;10645;52.370;13.314;2022-11-20T13:38:09;1.70;99.90
20973;DHT22;10645;52.370;13.314;2022-11-20T13:40:39;1.60;99.90
20973;DHT22;10645;52.370;13.314;2022-11-20T13:46:03;1.50;99.90
20973;DHT22;10645;52.370;13.314;2022-11-20T13:48:32;1.40;99.90
20973;DHT22;10645;52.370;13.314;2022-11-20T13:51:06;1.40;99.90
20973;DHT22;10645;52.370;13.314;2022-11-20T13:53:59;1.30;99.90
20973;DHT22;10645;52.370;13.314;2022-11-20T13:56:34;1.20;99.90
20973;DHT22;10645;52.370;13.314;2022-11-20T14:01:34;1.20;99.90
20973;DHT22;10645;52.370;13.314;2022-11-20T14:04:07;1.20;99.90
20973;DHT22;10645;52.370;13.314;2022-11-20T14:06:44;1.20;99.90
20973;DHT22;10645;52.370;13.314;2022-11-20T14:09:31;1.10;99.90
20973;DHT22;10645;52.370;13.314;2022-11-20T14:11:58;1.20;99.90
20973;DHT22;10645;52.370;13.314;2022-11-20T14:14:29;1.20;99.90
20973;DHT22;10645;52.370;13.314;2022-11-20T14:17:17;1.20;99.90
20973;DHT22;10645;52.370;13.314;2022-11-20T14:19:46;1.20;99.90
20973;DHT22;10645;52.370;13.314;2022-11-20T14:22:17;1.20;99.90
20973;DHT22;10645;52.370;13.314;2022-11-20T14:24:45;1.20;99.90
20973;DHT22;10645;52.370;13.314;2022-11-20T14:27:16;1.20;99.90
20973;DHT22;10645;52.370;13.314;2022-11-20T14:29:44;1.20;99.90
20973;DHT22;10645;52.370;13.314;2022-11-20T14:32:11;1.20;99.90
20973;DHT22;10645;52.370;13.314;2022-11-20T14:34:41;1.20;99.90
20973;DHT22;10645;52.370;13.314;2022-11-20T14:37:16;1.20;99.90
20973;DHT22;10645;52.370;13.314;2022-11-20T14:39:50;1.20;99.90
20973;DHT22;10645;52.370;13.314;2022-11-20T14:42:19;1.20;99.90
20973;DHT22;10645;52.370;13.314;2022-11-20T14:44:45;1.10;99.90
20973;DHT22;10645;52.370;13.314;2022-11-20T14:47:17;1.10;99.90
20973;DHT22;10645;52.370;13.314;2022-11-20T14:49:44;1.10;99.90
20973;DHT22;10645;52.370;13.314;2022-11-20T14:52:16;1.00;99.90
20973;DHT22;10645;52.370;13.314;2022-11-20T14:55:03;0.90;99.90
20973;DHT22;10645;52.370;13.314;2022-11-20T14:57:31;0.90;99.90
20973;DHT22;10645;52.370;13.314;2022-11-20T15:00:06;0.80;99.90
20973;DHT22;10645;52.370;13.314;2022-11-20T15:02:32;0.80;99.90
20973;DHT22;10645;52.370;13.314;2022-11-20T15:05:00;0.80;99.90
20973;DHT22;10645;52.370;13.314;2022-11-20T15:07:36;0.80;99.90
20973;DHT22;10645;52.370;13.314;2022-11-20T15:10:06;0.80;99.90
20973;DHT22;10645;52.370;13.314;2022-11-20T15:12:36;0.90;99.90
20973;DHT22;10645;52.370;13.314;2022-11-20T15:15:03;0.80;99.90
20973;DHT22;10645;52.370;13.314;2022-11-20T15:17:32;0.90;99.90
20973;DHT22;10645;52.370;13.314;2022-11-20T15:20:14;0.90;99.90
20973;DHT22;10645;52.370;13.314;2022-11-20T15:22:41;0.90;99.90
20973;DHT22;10645;52.370;13.314;2022-11-20T15:25:12;0.90;99.90
20973;DHT22;10645;52.370;13.314;2022-11-20T15:27:39;0.90;99.90
20973;DHT22;10645;52.370;13.314;2022-11-20T15:30:15;0.90;99.90
20973;DHT22;10645;52.370;13.314;2022-11-20T15:32:43;0.90;99.90
20973;DHT22;10645;52.370;13.314;2022-11-20T15:35:10;0.90;99.90
20973;DHT22;10645;52.370;13.314;2022-11-20T15:37:37;0.90;99.90
20973;DHT22;10645;52.370;13.314;2022-11-20T15:40:03;0.90;99.90
20973;DHT22;10645;52.370;13.314;2022-11-20T15:42:30;0.90;99.90
20973;DHT22;10645;52.370;13.314;2022-11-20T15:44:56;0.90;99.90
20973;DHT22;10645;52.370;13.314;2022-11-20T15:47:35;0.90;99.90
20973;DHT22;10645;52.370;13.314;2022-11-20T15:50:01;0.90;99.90
20973;DHT22;10645;52.370;13.314;2022-11-20T15:52:27;0.90;99.90
20973;DHT22;10645;52.370;13.314;2022-11-20T15:54:53;0.90;99.90
20973;DHT22;10645;52.370;13.314;2022-11-20T15:57:19;0.90;99.90
20973;DHT22;10645;52.370;13.314;2022-11-20T15:59:45;0.90;99.90
20973;DHT22;10645;52.370;13.314;2022-11-20T16:02:12;1.00;99.90
20973;DHT22;10645;52.370;13.314;2022-11-20T16:04:39;1.00;99.90
20973;DHT22;10645;52.370;13.314;2022-11-20T16:07:05;1.00;99.90
20973;DHT22;10645;52.370;13.314;2022-11-20T16:09:31;1.00;99.90
20973;DHT22;10645;52.370;13.314;2022-11-20T16:11:58;0.90;99.90
20973;DHT22;10645;52.370;13.314;2022-11-20T16:14:27;0.90;99.90
20973;DHT22;10645;52.370;13.314;2022-11-20T16:17:12;0.90;99.90
20973;DHT22;10645;52.370;13.314;2022-11-20T16:19:39;0.90;99.90
20973;DHT22;10645;52.370;13.314;2022-11-20T16:22:05;0.90;99.90
20973;DHT22;10645;52.370;13.314;2022-11-20T16:24:31;0.80;99.90
20973;DHT22;10645;52.370;13.314;2022-11-20T16:26:57;0.80;99.90
20973;DHT22;10645;52.370;13.314;2022-11-20T16:29:23;0.80;99.90
20973;DHT22;10645;52.370;13.314;2022-11-20T16:31:49;0.80;99.90
20973;DHT22;10645;52.370;13.314;2022-11-20T16:34:16;0.80;99.90
20973;DHT22;10645;52.370;13.314;2022-11-20T16:36:43;0.70;99.90
20973;DHT22;10645;52.370;13.314;2022-11-20T16:39:11;0.70;99.90
20973;DHT22;10645;52.370;13.314;2022-11-20T16:41:37;0.70;99.90
20973;DHT22;10645;52.370;13.314;2022-11-20T16:44:09;0.60;99.90
20973;DHT22;10645;52.370;13.314;2022-11-20T16:46:35;0.50;99.90
20973;DHT22;10645;52.370;13.314;2022-11-20T16:49:04;0.40;99.90
20973;DHT22;10645;52.370;13.314;2022-11-20T16:51:33;0.30;99.90
20973;DHT22;10645;52.370;13.314;2022-11-20T16:54:07;0.20;99.90
20973;DHT22;10645;52.370;13.314;2022-11-20T16:56:33;0.10;99.90
20973;DHT22;10645;52.370;13.314;2022-11-20T16:59:00;-0.10;99.90
20973;DHT22;10645;52.370;13.314;2022-11-20T17:01:28;-0.10;99.90